createdAt,value
2023-10-29T00:04:44.801Z,100.00
2023-10-29T00:10:47.438Z,100.00
2023-10-29T00:16:48.993Z,100.00
2023-10-29T00:22:50.563Z,100.00
2023-10-29T00:28:52.556Z,100.00
2023-10-29T00:34:54.121Z,100.00
2023-10-29T00:40:56.670Z,100.00
2023-10-29T00:46:58.855Z,100.00
2023-10-29T00:53:00.568Z,100.00
2023-10-29T00:59:02.906Z,100.00
2023-10-29T01:05:06.168Z,100.00
2023-10-29T01:11:08.316Z,100.00
2023-10-29T01:17:09.891Z,100.00
2023-10-29T01:23:12.435Z,100.00
2023-10-29T01:29:14.013Z,100.00
2023-10-29T01:35:15.599Z,100.00
2023-10-29T01:41:17.584Z,100.00
2023-10-29T01:47:19.163Z,100.00
2023-10-29T01:53:20.962Z,100.00
2023-10-29T01:59:22.563Z,100.00
2023-10-29T02:05:24.173Z,100.00
2023-10-29T02:11:25.770Z,100.00
2023-10-29T02:17:28.726Z,100.00
2023-10-29T02:23:30.504Z,100.00
2023-10-29T02:29:32.140Z,100.00
2023-10-29T02:35:35.124Z,100.00
2023-10-29T02:41:37.484Z,100.00
2023-10-29T02:47:39.246Z,100.00
2023-10-29T02:53:41.054Z,100.00
2023-10-29T02:59:42.723Z,100.00
2023-10-29T03:05:56.218Z,100.00
2023-10-29T03:11:58.926Z,100.00
2023-10-29T03:18:00.960Z,100.00
2023-10-29T03:24:02.670Z,100.00
2023-10-29T03:30:05.001Z,100.00
2023-10-29T03:36:07.696Z,100.00
2023-10-29T03:42:09.251Z,100.00
2023-10-29T03:48:10.989Z,100.00
2023-10-29T03:54:12.853Z,100.00
2023-10-29T04:00:14.768Z,100.00
2023-10-29T04:06:16.342Z,100.00
2023-10-29T04:12:17.948Z,100.00
2023-10-29T04:18:20.685Z,100.00
2023-10-29T04:24:22.325Z,100.00
2023-10-29T04:30:23.908Z,100.00
2023-10-29T04:36:26.005Z,100.00
2023-10-29T04:42:27.594Z,100.00
2023-10-29T04:48:29.284Z,100.00
2023-10-29T04:54:31.205Z,100.00
2023-10-29T05:00:32.816Z,100.00
2023-10-29T05:06:34.376Z,100.00
2023-10-29T05:12:35.921Z,100.00
2023-10-29T05:18:38.549Z,100.00
2023-10-29T05:24:40.083Z,100.00
2023-10-29T05:30:41.692Z,100.00
2023-10-29T05:36:43.917Z,100.00
2023-10-29T05:42:45.668Z,100.00
2023-10-29T05:48:47.391Z,100.00
2023-10-29T05:54:49.171Z,100.00
2023-10-29T06:00:51.927Z,100.00
2023-10-29T06:06:53.527Z,100.00
2023-10-29T06:12:56.067Z,100.00
2023-10-29T06:18:57.661Z,100.00
2023-10-29T06:24:59.980Z,100.00
2023-10-29T06:31:01.653Z,100.00
2023-10-29T06:37:03.236Z,100.00
2023-10-29T06:43:04.958Z,100.00
2023-10-29T06:49:06.549Z,100.00
2023-10-29T06:55:10.159Z,100.00
2023-10-29T07:01:12.347Z,100.00
2023-10-29T07:07:14.195Z,100.00
2023-10-29T07:13:15.870Z,100.00
2023-10-29T07:19:20.516Z,100.00
2023-10-29T07:25:22.393Z,100.00
2023-10-29T07:31:23.978Z,100.00
2023-10-29T07:37:25.575Z,100.00
2023-10-29T07:43:27.160Z,100.00
2023-10-29T07:49:28.718Z,100.00
2023-10-29T07:55:30.262Z,91.54
2023-10-29T08:01:31.845Z,62.24
2023-10-29T08:07:33.452Z,52.44
2023-10-29T08:13:34.998Z,48.97
2023-10-29T08:19:36.459Z,47.36
2023-10-29T08:25:38.816Z,42.34
2023-10-29T08:31:40.494Z,40.18
2023-10-29T08:37:43.435Z,40.48
2023-10-29T08:43:46.924Z,40.47
2023-10-29T08:49:48.849Z,40.88
2023-10-29T08:55:50.489Z,40.72
2023-10-29T09:01:53.694Z,41.48
2023-10-29T09:07:55.264Z,44.14
2023-10-29T09:13:56.869Z,46.47
2023-10-29T09:19:58.441Z,46.11
2023-10-29T09:26:00.683Z,42.54
2023-10-29T09:32:06.356Z,40.08
2023-10-29T09:38:08.543Z,38.73
2023-10-29T09:44:18.841Z,38.40
2023-10-29T09:50:23.561Z,40.75
2023-10-29T09:56:26.575Z,40.61
2023-10-29T10:02:28.237Z,41.92
2023-10-29T10:08:31.709Z,40.03
2023-10-29T10:14:33.459Z,38.56
2023-10-29T10:20:36.619Z,38.31
2023-10-29T10:26:39.187Z,38.94
2023-10-29T10:32:41.243Z,39.58
2023-10-29T10:38:55.227Z,38.76
2023-10-29T10:45:00.740Z,40.60
2023-10-29T10:51:03.538Z,44.83
2023-10-29T10:57:08.569Z,47.57
2023-10-29T11:03:25.229Z,50.86
2023-10-29T11:09:33.556Z,53.13
2023-10-29T11:15:48.001Z,56.01
2023-10-29T11:22:18.475Z,59.27
2023-10-29T11:28:26.011Z,63.67
2023-10-29T11:34:34.408Z,62.21
2023-10-29T11:40:37.217Z,64.11
2023-10-29T11:46:57.433Z,61.92
2023-10-29T11:52:59.044Z,62.16
2023-10-29T11:59:05.970Z,64.19
2023-10-29T12:05:11.282Z,63.72
2023-10-29T12:11:14.216Z,63.61
2023-10-29T12:17:15.884Z,62.26
2023-10-29T12:23:17.825Z,61.15
2023-10-29T12:29:19.549Z,60.31
2023-10-29T12:35:34.823Z,59.45
2023-10-29T12:41:36.511Z,58.37
2023-10-29T12:47:38.031Z,58.50
2023-10-29T12:53:39.676Z,58.11
2023-10-29T12:59:41.257Z,55.21
2023-10-29T13:05:43.021Z,51.49
2023-10-29T13:11:46.628Z,51.68
2023-10-29T13:17:48.278Z,50.89
2023-10-29T13:23:50.103Z,52.18
2023-10-29T13:29:51.708Z,53.42
2023-10-29T13:35:53.339Z,54.56
2023-10-29T13:41:55.144Z,54.60
2023-10-29T13:47:56.905Z,53.06
2023-10-29T13:53:58.605Z,53.41
2023-10-29T14:00:00.104Z,53.35
2023-10-29T14:06:05.406Z,54.57
2023-10-29T14:12:07.607Z,55.10
2023-10-29T14:18:10.230Z,56.93
2023-10-29T14:24:11.852Z,59.08
2023-10-29T14:30:13.975Z,60.98
2023-10-29T14:36:15.637Z,62.83
2023-10-29T14:42:17.665Z,63.80
2023-10-29T14:48:22.322Z,66.72
2023-10-29T14:54:24.244Z,71.50
2023-10-29T15:00:25.825Z,76.37
2023-10-29T15:06:27.451Z,82.13
2023-10-29T15:12:30.012Z,86.74
2023-10-29T15:18:31.662Z,91.58
2023-10-29T15:24:33.296Z,95.35
2023-10-29T15:30:34.956Z,99.26
2023-10-29T15:36:36.520Z,100.00
2023-10-29T15:42:38.725Z,100.00
2023-10-29T15:48:40.323Z,100.00
2023-10-29T15:54:41.887Z,100.00
2023-10-29T16:00:43.438Z,100.00
2023-10-29T16:06:45.545Z,100.00
2023-10-29T16:12:47.161Z,100.00
2023-10-29T16:18:48.793Z,100.00
2023-10-29T16:24:50.398Z,100.00
2023-10-29T16:30:51.970Z,100.00
2023-10-29T16:36:53.601Z,100.00
2023-10-29T16:42:55.181Z,100.00
2023-10-29T16:48:56.809Z,100.00
2023-10-29T16:54:58.663Z,100.00
2023-10-29T17:01:00.611Z,100.00
2023-10-29T17:07:02.837Z,100.00
2023-10-29T17:13:05.754Z,100.00
2023-10-29T17:19:08.101Z,100.00
2023-10-29T17:25:09.953Z,100.00
2023-10-29T17:31:19.766Z,100.00
2023-10-29T17:37:21.416Z,100.00
2023-10-29T17:43:23.200Z,100.00
2023-10-29T17:49:26.689Z,100.00
2023-10-29T17:55:28.927Z,100.00
2023-10-29T18:01:31.326Z,100.00
2023-10-29T18:07:32.906Z,100.00
2023-10-29T18:13:34.941Z,100.00
2023-10-29T18:19:38.116Z,100.00
2023-10-29T18:25:39.735Z,100.00
2023-10-29T18:31:41.885Z,100.00
2023-10-29T18:37:46.769Z,100.00
2023-10-29T18:43:50.298Z,100.00
2023-10-29T18:49:52.243Z,100.00
2023-10-29T18:55:53.782Z,100.00
2023-10-29T19:01:55.578Z,100.00
2023-10-29T19:07:57.318Z,100.00
2023-10-29T19:13:58.959Z,100.00
2023-10-29T19:20:00.652Z,100.00
2023-10-29T19:26:02.839Z,100.00
2023-10-29T19:32:05.443Z,100.00
2023-10-29T19:38:07.235Z,100.00
2023-10-29T19:44:09.157Z,100.00
2023-10-29T19:50:11.023Z,100.00
2023-10-29T19:56:13.243Z,100.00
2023-10-29T20:02:15.365Z,100.00
2023-10-29T20:08:16.986Z,100.00
2023-10-29T20:14:19.188Z,100.00
2023-10-29T20:20:20.841Z,100.00
2023-10-29T20:26:23.755Z,100.00
2023-10-29T20:32:25.349Z,100.00
2023-10-29T20:38:27.103Z,100.00
2023-10-29T20:44:28.733Z,100.00
2023-10-29T20:50:33.334Z,100.00
2023-10-29T20:56:35.461Z,100.00
2023-10-29T21:02:37.086Z,100.00
2023-10-29T21:08:38.780Z,100.00
2023-10-29T21:14:40.488Z,100.00
2023-10-29T21:20:45.478Z,100.00
2023-10-29T21:26:47.024Z,100.00
2023-10-29T21:32:48.644Z,100.00
2023-10-29T21:38:50.258Z,100.00
2023-10-29T21:44:51.851Z,100.00
2023-10-29T21:50:55.230Z,100.00
2023-10-29T21:56:56.713Z,100.00
2023-10-29T22:03:01.246Z,100.00
2023-10-29T22:09:04.203Z,100.00
2023-10-29T22:15:06.394Z,100.00
2023-10-29T22:21:10.981Z,100.00
2023-10-29T22:27:12.616Z,100.00
2023-10-29T22:33:14.262Z,100.00
2023-10-29T22:39:16.740Z,100.00
2023-10-29T22:45:18.417Z,100.00
2023-10-29T22:51:20.271Z,100.00
2023-10-29T22:57:21.990Z,100.00
2023-10-29T23:03:23.770Z,100.00
2023-10-29T23:09:26.675Z,100.00
2023-10-29T23:15:28.251Z,100.00
2023-10-29T23:21:29.920Z,100.00
2023-10-29T23:27:31.882Z,100.00
2023-10-29T23:33:33.587Z,100.00
2023-10-29T23:39:35.285Z,100.00
2023-10-29T23:45:36.994Z,100.00
2023-10-29T23:51:38.696Z,100.00
2023-10-29T23:57:40.391Z,100.00
